createdAt,value
2022-12-15T00:01:06.710Z,28
2022-12-15T00:06:08.462Z,35
2022-12-15T00:11:10.084Z,35
2022-12-15T00:16:11.779Z,41
2022-12-15T00:21:13.451Z,26
2022-12-15T00:26:15.064Z,28
2022-12-15T00:31:17.000Z,39
2022-12-15T00:36:18.663Z,33
2022-12-15T00:41:20.263Z,26
2022-12-15T00:46:21.969Z,28
2022-12-15T00:51:23.617Z,23
2022-12-15T00:56:25.235Z,18
2022-12-15T01:01:27.126Z,19
2022-12-15T01:06:28.808Z,19
2022-12-15T01:11:30.416Z,16
2022-12-15T01:16:32.087Z,20
2022-12-15T01:21:33.763Z,12
2022-12-15T01:26:35.375Z,13
2022-12-15T01:31:37.064Z,10
2022-12-15T01:36:38.844Z,17
2022-12-15T01:41:40.439Z,13
2022-12-15T01:46:42.172Z,9
2022-12-15T01:51:43.785Z,14
2022-12-15T01:56:45.402Z,17
2022-12-15T02:01:49.593Z,9
2022-12-15T02:06:51.889Z,15
2022-12-15T02:11:53.500Z,12
2022-12-15T02:16:55.135Z,9
2022-12-15T02:21:56.797Z,16
2022-12-15T02:26:58.405Z,13
2022-12-15T02:32:00.172Z,9
2022-12-15T02:37:01.819Z,6
2022-12-15T02:42:03.457Z,10
2022-12-15T02:47:05.094Z,8
2022-12-15T02:52:06.737Z,8
2022-12-15T02:57:08.388Z,9
2022-12-15T03:02:10.137Z,8
2022-12-15T03:07:11.938Z,6
2022-12-15T03:12:13.557Z,5
2022-12-15T03:17:15.235Z,17
2022-12-15T03:22:16.899Z,8
2022-12-15T03:27:18.494Z,6
2022-12-15T03:32:20.222Z,10
2022-12-15T03:37:21.913Z,6
2022-12-15T03:42:23.529Z,8
2022-12-15T03:47:25.141Z,9
2022-12-15T03:52:26.769Z,10
2022-12-15T03:57:28.438Z,9
2022-12-15T04:02:30.250Z,13
2022-12-15T04:07:31.991Z,6
2022-12-15T04:12:33.705Z,9
2022-12-15T04:17:35.375Z,8
2022-12-15T04:22:36.985Z,8
2022-12-15T04:27:38.634Z,8
2022-12-15T04:32:40.287Z,10
2022-12-15T04:37:41.955Z,8
2022-12-15T04:42:43.622Z,10
2022-12-15T04:47:45.209Z,9
2022-12-15T04:52:46.949Z,7
2022-12-15T04:57:48.641Z,10
2022-12-15T05:02:50.511Z,9
2022-12-15T05:07:52.145Z,10
2022-12-15T05:12:53.836Z,9
2022-12-15T05:17:55.505Z,13
2022-12-15T05:22:57.115Z,11
2022-12-15T05:27:58.803Z,9
2022-12-15T05:33:00.522Z,9
2022-12-15T05:38:02.193Z,10
2022-12-15T05:43:03.850Z,9
2022-12-15T05:48:05.499Z,7
2022-12-15T05:53:07.205Z,5
2022-12-15T05:58:08.873Z,6
2022-12-15T06:03:10.641Z,6
2022-12-15T06:08:12.402Z,11
2022-12-15T06:13:14.019Z,6
2022-12-15T06:18:15.646Z,5
2022-12-15T06:23:17.255Z,8
2022-12-15T06:28:18.852Z,12
2022-12-15T06:33:20.469Z,8
2022-12-15T06:38:22.054Z,5
2022-12-15T06:43:23.670Z,7
2022-12-15T06:48:25.276Z,8
2022-12-15T06:53:26.874Z,9
2022-12-15T06:58:28.502Z,7
2022-12-15T07:03:30.929Z,7
2022-12-15T07:08:38.033Z,8
2022-12-15T07:13:42.891Z,10
2022-12-15T07:18:44.704Z,7
2022-12-15T07:23:54.569Z,9
2022-12-15T07:28:56.975Z,8
2022-12-15T07:33:58.642Z,11
2022-12-15T07:39:00.410Z,5
2022-12-15T07:44:02.053Z,7
2022-12-15T07:49:03.667Z,6
2022-12-15T07:54:05.357Z,18
2022-12-15T07:59:06.995Z,12
2022-12-15T08:04:08.609Z,12
2022-12-15T08:09:10.261Z,9
2022-12-15T08:14:16.992Z,7
2022-12-15T08:19:19.456Z,4
2022-12-15T08:24:21.094Z,3
2022-12-15T08:29:49.994Z,3
2022-12-15T08:34:52.937Z,6
2022-12-15T08:39:54.537Z,3
2022-12-15T08:44:56.185Z,3
2022-12-15T08:49:57.869Z,4
2022-12-15T08:54:59.465Z,3
2022-12-15T09:00:01.100Z,3
2022-12-15T09:05:02.712Z,5
2022-12-15T09:10:04.381Z,2
2022-12-15T09:15:05.984Z,4
2022-12-15T09:20:07.874Z,2
2022-12-15T09:25:09.455Z,3
2022-12-15T09:30:11.052Z,2
2022-12-15T09:35:12.738Z,6
2022-12-15T09:40:14.335Z,6
2022-12-15T09:45:15.989Z,5
2022-12-15T09:50:17.732Z,3
2022-12-15T09:55:19.385Z,7
2022-12-15T10:00:21.093Z,7
2022-12-15T10:05:22.761Z,7
2022-12-15T10:10:24.574Z,6
2022-12-15T10:15:26.388Z,6
2022-12-15T10:20:28.107Z,14
2022-12-15T10:25:30.628Z,10
2022-12-15T10:30:32.606Z,10
2022-12-15T10:35:34.323Z,13
2022-12-15T10:40:35.935Z,10
2022-12-15T10:45:37.545Z,14
2022-12-15T10:50:39.227Z,5
2022-12-15T10:55:40.832Z,8
2022-12-15T11:00:42.443Z,9
2022-12-15T11:05:44.042Z,6
2022-12-15T11:10:46.936Z,9
2022-12-15T11:15:51.963Z,8
2022-12-15T11:20:53.598Z,8
2022-12-15T11:25:58.186Z,12
2022-12-15T11:31:00.900Z,8
2022-12-15T11:36:08.040Z,9
2022-12-15T11:41:09.684Z,9
2022-12-15T11:46:11.321Z,12
2022-12-15T11:51:13.005Z,10
2022-12-15T11:56:14.694Z,5
2022-12-15T12:01:16.329Z,8
2022-12-15T12:06:18.071Z,9
2022-12-15T12:11:19.747Z,12
2022-12-15T12:16:21.404Z,6
2022-12-15T12:21:23.078Z,6
2022-12-15T12:26:24.709Z,8
2022-12-15T12:31:26.374Z,5
2022-12-15T12:36:28.003Z,8
2022-12-15T12:41:29.639Z,0
2022-12-15T12:46:31.244Z,4
2022-12-15T12:51:32.850Z,5
2022-12-15T12:56:34.459Z,5
2022-12-15T13:01:36.372Z,8
2022-12-15T13:06:38.202Z,9
2022-12-15T13:11:39.828Z,5
2022-12-15T13:17:01.359Z,9
2022-12-15T13:22:26.528Z,4
2022-12-15T13:27:28.163Z,8
2022-12-15T13:32:29.844Z,4
2022-12-15T13:37:36.701Z,6
2022-12-15T13:42:51.263Z,4
2022-12-15T13:47:56.483Z,4
2022-12-15T15:03:05.714Z,4
2022-12-15T15:08:22.121Z,7
2022-12-15T15:13:23.781Z,5
2022-12-15T15:18:25.420Z,9
2022-12-15T15:23:27.101Z,26
2022-12-15T15:28:29.160Z,5
2022-12-15T15:33:31.257Z,6
2022-12-15T15:38:33.609Z,5
2022-12-15T15:43:35.724Z,4
2022-12-15T15:48:37.417Z,5
2022-12-15T15:53:39.071Z,5
2022-12-15T15:58:40.716Z,4
2022-12-15T16:03:42.636Z,2
2022-12-15T16:08:44.445Z,4
2022-12-15T16:13:46.072Z,1
2022-12-15T16:18:47.714Z,2
2022-12-15T16:23:49.390Z,2
2022-12-15T16:28:50.967Z,4
2022-12-15T16:33:52.587Z,2
2022-12-15T16:38:54.366Z,1
2022-12-15T16:43:55.964Z,4
2022-12-15T16:48:57.689Z,4
2022-12-15T16:53:59.376Z,5
2022-12-15T16:59:31.425Z,2
2022-12-15T17:04:33.578Z,7
2022-12-15T17:09:35.406Z,5
2022-12-15T17:14:37.113Z,7
2022-12-15T17:19:41.896Z,5
2022-12-15T17:24:49.874Z,8
2022-12-15T17:29:51.527Z,5
2022-12-15T17:34:53.320Z,2
2022-12-15T17:39:54.917Z,5
2022-12-15T17:44:56.804Z,5
2022-12-15T17:49:58.475Z,4
2022-12-15T17:55:00.094Z,7
2022-12-15T18:00:01.863Z,4
2022-12-15T18:05:03.602Z,1
2022-12-15T18:10:05.199Z,2
2022-12-15T18:15:06.796Z,2
2022-12-15T18:20:08.398Z,4
2022-12-15T18:25:10.074Z,2
2022-12-15T18:30:11.707Z,2
2022-12-15T18:35:13.381Z,2
2022-12-15T18:40:15.039Z,4
2022-12-15T18:45:16.661Z,2
2022-12-15T18:50:18.266Z,5
2022-12-15T18:55:19.886Z,4
2022-12-15T19:00:21.642Z,10
2022-12-15T19:05:23.148Z,5
2022-12-15T19:10:24.988Z,5
2022-12-15T19:15:26.750Z,5
2022-12-15T19:20:28.410Z,6
2022-12-15T19:25:30.241Z,7
2022-12-15T19:30:34.609Z,7
2022-12-15T19:35:40.226Z,8
2022-12-15T19:40:42.066Z,4
2022-12-15T19:45:43.744Z,5
2022-12-15T19:50:45.443Z,7
2022-12-15T19:55:47.062Z,4
2022-12-15T20:00:50.125Z,4
2022-12-15T20:05:51.755Z,5
2022-12-15T20:10:53.352Z,11
2022-12-15T20:15:55.021Z,7
2022-12-15T20:20:56.666Z,5
2022-12-15T20:25:58.299Z,4
2022-12-15T20:31:00.029Z,2
2022-12-15T20:36:01.603Z,5
2022-12-15T20:41:03.194Z,4
2022-12-15T20:46:04.916Z,4
2022-12-15T20:51:09.624Z,5
2022-12-15T20:56:11.682Z,4
2022-12-15T21:01:13.714Z,5
2022-12-15T21:06:29.014Z,4
2022-12-15T21:11:31.231Z,5
2022-12-15T21:16:33.163Z,7
2022-12-15T21:21:34.825Z,5
2022-12-15T21:26:36.506Z,5
2022-12-15T21:31:38.244Z,13
2022-12-15T21:36:39.857Z,14
2022-12-15T21:41:46.378Z,8
2022-12-15T21:46:48.207Z,13
2022-12-15T21:51:50.067Z,16
2022-12-15T21:56:53.550Z,13
2022-12-15T22:01:57.051Z,14
2022-12-15T22:06:58.775Z,14
2022-12-15T22:12:00.440Z,14
2022-12-15T22:17:02.167Z,21
2022-12-15T22:22:03.765Z,19
2022-12-15T22:27:05.406Z,21
2022-12-15T22:32:07.162Z,11
2022-12-15T22:37:08.801Z,17
2022-12-15T22:42:10.407Z,20
2022-12-15T22:47:12.079Z,16
2022-12-15T22:52:13.766Z,16
2022-12-15T22:57:29.763Z,11
2022-12-15T23:02:31.514Z,11
2022-12-15T23:07:33.218Z,25
2022-12-15T23:12:34.843Z,19
2022-12-15T23:17:36.563Z,16
2022-12-15T23:22:38.268Z,17
2022-12-15T23:27:40.010Z,17
2022-12-15T23:32:41.630Z,14
2022-12-15T23:37:43.295Z,16
2022-12-15T23:42:44.980Z,23
2022-12-15T23:47:46.681Z,19
2022-12-15T23:52:51.790Z,26
2022-12-15T23:57:53.723Z,23
